Latest Weather Observations for Archerfield

IDQ60801

Issued at 12:02 pm EST Sunday 18 November 2018 (issued every 10 minutes, with the page automatically refreshed every 10 minutes)

About weather observations | Map of weather stations | Latest weather observations for QLD | Other Formats
Station Details ID: 040211 Name: ARCHERFIELD AIRPORT Lat: -27.57 Lon: 153.01 Height: 12.5 m
Data from the previous 72 hours. | See also: Recent months at Archerfield
Date/Time
EST
Temp
°C
App
Temp
°C
Dew
Point
°C
Rel
Hum
%
Delta-T
°C
Wind Press
QNH
hPa
Press
MSL
hPa
Rain since
9am
mm
Dir  Spd
km/h
Gust
km/h
Spd
kts
Gust
kts
18/12:00pm 24.0 20.0 14.1 54 5.8 ESE 28 41 15 22 1018.5 1018.4 0.0
18/11:30am 24.0 20.1 14.4 55 5.7 ESE 28 39 15 21 1018.5 1018.4 0.0
18/11:00am 24.0 20.1 14.4 55 5.7 SE 28 39 15 21 1018.4 1018.3 0.0
18/10:45am 24.0 20.1 14.4 55 5.7 SE 28 46 15 25 1018.5 1018.4 0.0
18/10:30am 24.1 19.8 14.5 55 5.7 ESE 30 41 16 22 1018.5 1018.4 0.0
18/10:00am 24.1 22.8 16.9 64 4.4 ESE 19 30 10 16 1018.8 1018.7 0.0
18/09:30am 23.0 21.3 17.2 70 3.6 SE 22 30 12 16 1019.0 1018.9 0.0
18/09:00am 22.1 19.5 16.8 72 3.2 SE 26 37 14 20 1019.0 1018.9 8.6
18/08:30am 22.5 19.9 16.8 70 3.5 SE 26 37 14 20 1018.8 1018.7 8.6
18/08:00am 22.9 21.4 17.8 73 3.2 SSE 22 32 12 17 1018.5 1018.4 8.6
18/07:30am 21.6 21.4 17.6 78 2.5 SSE 15 24 8 13 1018.4 1018.3 8.6
18/07:00am 20.7 20.8 17.5 82 2.0 SSE 13 19 7 10 1018.1 1018.0 8.6
18/06:30am 19.6 20.2 16.8 84 1.7 S 9 11 5 6 1017.6 1017.5 8.6
18/06:00am 18.8 21.1 16.8 88 1.2 CALM 0 0 0 0 1017.4 1017.3 8.6
18/05:30am 17.9 19.4 16.6 92 0.8 S 4 7 2 4 1017.0 1016.9 8.6
18/05:00am 17.7 18.6 16.6 93 0.7 WSW 7 9 4 5 1016.7 1016.6 8.6
18/04:30am 17.6 18.5 16.5 93 0.7 S 7 9 4 5 1016.0 1015.9 8.6
18/04:00am 17.2 18.5 16.1 93 0.6 SSW 4 9 2 5 1015.8 1015.7 8.6
18/03:30am 17.1 17.8 15.6 91 0.9 WSW 6 7 3 4 1015.8 1015.7 8.6
18/03:00am 17.6 18.3 16.1 91 0.9 SSW 7 9 4 5 1015.8 1015.7 8.6
18/02:30am 18.0 18.0 16.3 90 1.0 SSW 11 13 6 7 1015.6 1015.5 8.6
18/02:00am 17.8 18.2 16.3 91 0.9 WSW 9 11 5 6 1016.1 1016.0 8.6
18/01:30am 18.0 19.1 16.5 91 0.9 SSW 6 7 3 4 1015.9 1015.8 8.6
18/01:00am 18.2 18.4 16.7 91 0.9 SSW 11 13 6 7 1016.1 1016.0 8.6
18/12:30am 18.5 18.8 17.0 91 0.9 S 11 13 6 7 1016.4 1016.3 8.6
18/12:00am 18.4 19.1 17.1 92 0.8 SW 9 11 5 6 1016.5 1016.4 8.6
 
Date/Time
EST
Temp
°C
App
Temp
°C
Dew
Point
°C
Rel
Hum
%
Delta-T
°C
Wind Press
QNH
hPa
Press
MSL
hPa
Rain since
9am
mm
Dir  Spd
km/h
Gust
km/h
Spd
kts
Gust
kts
17/11:30pm 18.7 19.2 17.4 92 0.8 SW 11 13 6 7 1016.7 1016.6 8.6
17/11:00pm 19.0 19.1 17.5 91 0.9 S 13 19 7 10 1016.8 1016.7 8.6
17/10:30pm 19.1 19.2 17.4 90 1.0 S 13 15 7 8 1017.1 1017.0 8.6
17/10:00pm 19.1 19.9 17.2 89 1.2 SSE 9 13 5 7 1017.2 1017.1 8.6
17/09:30pm 19.3 19.9 16.9 86 1.5 ENE 9 15 5 8 1017.0 1016.9 8.6
17/09:07pm 19.9 19.6 17.3 85 1.6 E 15 20 8 11 1017.1 1017.0 8.6
17/09:00pm 20.0 20.7 18.0 88 1.2 E 11 20 6 11 1017.1 1017.0 8.6
17/08:30pm 19.7 21.4 18.4 92 0.8 SSE 7 9 4 5 1016.7 1016.6 8.6
17/08:01pm 19.3 20.3 17.8 91 0.9 S 9 11 5 6 1016.4 1016.3 8.6
17/08:00pm 19.2 20.3 17.9 92 0.8 S 9 11 5 6 1016.3 1016.2 8.6
17/07:34pm 19.0 18.8 17.7 92 0.8 SE 15 24 8 13 1015.6 1015.5 8.6
17/07:30pm 19.0 18.0 17.5 91 0.9 SE 19 28 10 15 1015.6 1015.5 8.6
17/07:00pm 18.7 14.3 16.7 88 1.2 SSE 35 56 19 30 1015.4 1015.3 4.8
17/06:54pm 19.7 16.8 17.1 85 1.6 S 28 56 15 30 1015.3 1015.2 2.2
17/06:51pm 21.2 20.1 17.8 81 2.1 SSW 20 56 11 30 1015.0 1014.9 1.0
17/06:30pm 22.4 23.7 19.2 82 2.0 SW 11 17 6 9 1013.8 1013.7 0.8
17/06:00pm 22.5 21.1 18.9 80 2.3 N 24 32 13 17 1012.4 1012.3 0.8
17/05:30pm 22.8 21.8 17.9 74 3.1 NNE 20 28 11 15 1012.5 1012.4 0.0
17/05:28pm 23.0 21.6 17.9 73 3.2 NNE 22 33 12 18 1012.3 1012.2 0.0
17/05:08pm 24.2 22.5 17.2 65 4.3 NE 22 30 12 16 1012.2 1012.1 0.0
17/05:00pm 24.2 21.7 17.2 65 4.3 NE 26 33 14 18 1011.3 1011.2 0.0
17/04:30pm 24.4 23.0 17.1 63 4.5 ESE 20 28 11 15 1012.2 1012.1 0.0
17/04:15pm 24.1 20.3 17.1 65 4.3 ENE 33 50 18 27 1011.4 1011.3 0.0
17/04:08pm 24.0 19.7 17.0 65 4.3 NNE 35 50 19 27 1010.7 1010.6 0.0
17/04:00pm 24.7 21.3 16.7 61 4.9 NNE 30 37 16 20 1011.2 1011.1 0.0
17/03:30pm 25.8 23.8 16.4 56 5.8 ENE 22 30 12 16 1011.5 1011.4 0.0
17/03:00pm 26.8 24.6 17.0 55 6.1 NE 24 32 13 17 1011.5 1011.4 0.0
17/02:30pm 29.1 27.1 17.3 49 7.4 NE 24 33 13 18 1011.7 1011.6 0.0
17/02:00pm 28.8 27.3 16.7 48 7.6 NNE 20 30 11 16 1012.4 1012.3 0.0
17/01:30pm 28.2 27.4 16.1 47 7.5 NE 15 22 8 12 1013.2 1013.1 0.0
17/01:00pm 28.3 26.6 16.2 47 7.5 NE 20 30 11 16 1013.2 1013.1 0.0
17/12:30pm 28.6 27.8 16.2 47 7.7 NNE 15 24 8 13 1013.5 1013.4 0.0
17/12:00pm 28.8 28.5 16.4 47 7.7 NE 13 20 7 11 1013.7 1013.6 0.0
17/11:30am 27.8 27.7 16.1 49 7.2 NE 11 20 6 11 1014.3 1014.2 0.0
17/11:00am 28.1 27.7 16.1 48 7.4 ENE 13 20 7 11 1015.0 1014.9 0.0
17/10:30am 27.6 27.1 16.9 52 6.7 N 15 22 8 12 1015.5 1015.4 0.0
17/10:00am 27.6 27.7 16.6 51 6.8 N 11 17 6 9 1015.7 1015.6 0.0
17/09:30am 26.5 26.7 15.8 51 6.5 NNW 9 15 5 8 1015.9 1015.8 0.0
17/09:00am 25.8 25.9 16.6 56 5.7 NNW 11 19 6 10 1016.2 1016.1 0.0
17/08:30am 24.6 24.6 17.3 64 4.5 NW 13 19 7 10 1016.2 1016.1 0.0
17/08:00am 24.9 25.8 17.6 64 4.6 NNW 9 20 5 11 1016.3 1016.2 0.0
17/07:30am 23.7 26.4 17.7 69 3.7 CALM 0 6 0 3 1016.2 1016.1 0.0
17/07:00am 22.4 24.4 17.8 75 2.9 W 4 7 2 4 1016.1 1016.0 0.0
17/06:30am 21.2 23.0 17.4 79 2.3 S 4 7 2 4 1015.7 1015.6 0.0
17/06:00am 20.6 21.7 17.2 81 2.1 SSW 7 9 4 5 1015.7 1015.6 0.0
17/05:30am 19.3 21.6 16.7 85 1.6 CALM 0 0 0 0 1015.3 1015.2 0.0
17/05:00am 18.9 20.0 16.5 86 1.4 S 6 7 3 4 1015.0 1014.9 0.0
17/04:30am 19.2 19.8 16.8 86 1.4 S 9 11 5 6 1014.6 1014.5 0.0
17/04:00am 19.4 20.0 16.8 85 1.6 S 9 11 5 6 1014.3 1014.2 0.0
17/03:30am 19.6 20.2 16.8 84 1.7 S 9 11 5 6 1014.2 1014.1 0.0
17/03:00am 20.0 21.1 16.6 81 2.1 SSW 6 6 3 3 1014.1 1014.0 0.0
17/02:30am 20.8 22.1 17.0 79 2.3 ESE 6 6 3 3 1014.3 1014.2 0.0
17/02:00am 20.5 21.6 16.7 79 2.3 SSW 6 6 3 3 1014.6 1014.5 0.0
17/01:30am 21.1 22.1 16.3 74 2.9 ESE 6 7 3 4 1015.1 1015.0 0.0
17/01:00am 21.7 22.2 16.6 73 3.1 ESE 9 11 5 6 1015.3 1015.2 0.0
17/12:30am 22.3 23.3 16.8 71 3.4 E 7 11 4 6 1015.6 1015.5 0.0
17/12:00am 22.8 23.4 16.8 69 3.7 E 9 13 5 7 1015.6 1015.5 0.0
 
Date/Time
EST
Temp
°C
App
Temp
°C
Dew
Point
°C
Rel
Hum
%
Delta-T
°C
Wind Press
QNH
hPa
Press
MSL
hPa
Rain since
9am
mm
Dir  Spd
km/h
Gust
km/h
Spd
kts
Gust
kts
16/11:30pm 22.9 23.9 16.9 69 3.7 E 7 9 4 5 1016.0 1015.9 0.0
16/11:00pm 22.9 23.5 16.9 69 3.7 SE 9 13 5 7 1016.5 1016.4 0.0
16/10:30pm 22.6 23.3 17.1 71 3.4 ESE 9 13 5 7 1016.4 1016.3 0.0
16/10:00pm 22.1 22.6 16.6 71 3.3 ENE 9 11 5 6 1016.6 1016.5 0.0
16/09:30pm 22.8 23.0 16.8 69 3.7 ENE 11 15 6 8 1016.5 1016.4 0.0
16/09:00pm 22.9 22.7 16.7 68 3.8 ENE 13 15 7 8 1016.4 1016.3 0.0
16/08:30pm 22.9 22.3 16.7 68 3.8 ENE 15 19 8 10 1016.0 1015.9 0.0
16/08:00pm 23.3 22.3 16.6 66 4.1 NE 17 22 9 12 1015.6 1015.5 0.0
16/07:30pm 23.2 22.1 16.3 65 4.2 NE 17 22 9 12 1015.2 1015.1 0.0
16/07:00pm 23.7 22.0 16.2 63 4.6 NE 20 28 11 15 1014.6 1014.5 0.0
16/06:30pm 24.0 21.6 16.3 62 4.7 NE 24 30 13 16 1014.4 1014.3 0.0
16/06:00pm 24.6 22.2 16.3 60 5.1 NE 24 30 13 16 1014.0 1013.9 0.0
16/05:30pm 25.4 22.7 16.5 58 5.5 NE 26 32 14 17 1013.7 1013.6 0.0
16/05:00pm 26.2 23.7 17.0 57 5.7 NE 26 32 14 17 1013.3 1013.2 0.0
16/04:30pm 26.9 24.4 16.2 52 6.6 ENE 24 33 13 18 1013.2 1013.1 0.0
16/04:00pm 28.0 25.6 16.3 49 7.2 NE 24 32 13 17 1013.1 1013.0 0.0
16/03:30pm 28.4 25.8 16.0 47 7.7 NE 24 33 13 18 1013.2 1013.1 0.0
16/03:00pm 28.6 26.2 15.5 45 8.0 NE 22 33 12 18 1013.2 1013.1 0.0
16/02:30pm 28.9 26.8 16.1 46 7.9 NE 22 35 12 19 1013.4 1013.3 0.0
16/02:00pm 29.7 28.4 16.8 45 8.1 NNE 19 28 10 15 1013.8 1013.7 0.0
16/01:30pm 29.4 28.4 16.6 46 8.0 NNE 17 24 9 13 1014.3 1014.2 0.0
16/01:00pm 29.0 27.0 15.5 44 8.3 NNE 20 28 11 15 1014.6 1014.5 0.0
16/12:30pm 29.4 28.9 15.9 44 8.4 ENE 13 20 7 11 1015.1 1015.0 0.0
16/12:00pm 27.6 27.0 15.6 48 7.3 NE 13 20 7 11 1015.7 1015.6 0.0
16/11:30am 27.4 27.3 16.1 50 7.0 NE 11 20 6 11 1016.2 1016.1 0.0
16/11:00am 27.1 27.2 16.4 52 6.6 NE 11 20 6 11 1016.6 1016.5 0.0
16/10:30am 27.1 26.6 15.8 50 6.9 NE 13 20 7 11 1016.9 1016.8 0.0
16/10:00am 26.0 26.2 15.7 53 6.3 NNE 9 19 5 10 1017.3 1017.2 0.0
16/09:30am 26.0 26.5 16.5 55 5.9 WSW 9 13 5 7 1017.7 1017.6 0.0
16/09:00am 25.3 26.0 17.0 60 5.1 WSW 9 13 5 7 1017.7 1017.6 0.0
16/08:30am 25.5 26.9 17.9 63 4.8 SW 7 11 4 6 1017.8 1017.7 0.0
16/08:00am 24.2 25.5 17.0 64 4.4 W 6 9 3 5 1017.9 1017.8 0.0
16/07:30am 24.4 26.5 17.1 63 4.5 S 2 7 1 4 1017.8 1017.7 0.0
16/07:00am 23.6 25.4 17.3 67 3.9 SSE 4 9 2 5 1017.7 1017.6 0.0
16/06:30am 21.8 23.1 17.0 74 2.9 SSW 6 9 3 5 1017.6 1017.5 0.0
16/06:00am 20.7 21.3 16.9 79 2.3 SSE 9 11 5 6 1017.4 1017.3 0.0
16/05:30am 19.7 20.6 16.5 82 1.9 SSE 7 7 4 4 1017.3 1017.2 0.0
16/05:00am 19.2 18.9 16.4 84 1.7 S 13 17 7 9 1017.1 1017.0 0.0
16/04:30am 19.2 19.0 16.6 85 1.6 S 13 15 7 8 1016.9 1016.8 0.0
16/04:00am 19.0 19.5 16.6 86 1.4 SSW 9 13 5 7 1016.6 1016.5 0.0
16/03:30am 18.7 19.3 15.9 84 1.7 SSW 7 9 4 5 1016.3 1016.2 0.0
16/03:00am 19.2 20.9 16.2 83 1.8 S 2 6 1 3 1016.2 1016.1 0.0
16/02:30am 19.7 20.2 16.5 82 1.9 S 9 11 5 6 1016.3 1016.2 0.0
16/02:00am 19.7 20.7 16.3 81 2.0 SW 6 7 3 4 1016.4 1016.3 0.0
16/01:30am 20.8 21.8 16.8 78 2.4 SE 7 9 4 5 1016.5 1016.4 0.0
16/01:00am 20.9 21.4 16.5 76 2.7 ENE 9 11 5 6 1016.6 1016.5 0.0
16/12:30am 21.4 21.7 17.0 76 2.7 ENE 11 13 6 7 1016.9 1016.8 0.0
16/12:00am 21.5 21.8 16.9 75 2.8 SSE 11 13 6 7 1017.6 1017.5 0.0
 
Date/Time
EST
Temp
°C
App
Temp
°C
Dew
Point
°C
Rel
Hum
%
Delta-T
°C
Wind Press
QNH
hPa
Press
MSL
hPa
Rain since
9am
mm
Dir  Spd
km/h
Gust
km/h
Spd
kts
Gust
kts
15/11:30pm 22.0 22.3 16.9 73 3.1 ESE 11 13 6 7 1018.0 1017.9 0.0
15/11:00pm 22.8 23.6 17.3 71 3.4 E 9 15 5 8 1017.9 1017.8 0.0
15/10:30pm 22.8 22.8 17.3 71 3.4 ENE 13 17 7 9 1017.6 1017.5 0.0
15/10:00pm 23.0 23.4 17.2 70 3.6 NE 11 15 6 8 1017.7 1017.6 0.0
15/09:30pm 23.0 22.6 17.2 70 3.6 NE 15 19 8 10 1017.6 1017.5 0.0
15/09:00pm 23.1 23.1 17.1 69 3.7 ENE 13 17 7 9 1017.5 1017.4 0.0
15/08:30pm 22.2 22.8 16.7 71 3.4 NE 9 11 5 6 1017.4 1017.3 0.0
15/08:00pm 22.8 22.2 16.6 68 3.8 ENE 15 19 8 10 1017.1 1017.0 0.0
15/07:30pm 23.0 22.3 16.3 66 4.1 ENE 15 19 8 10 1016.7 1016.6 0.0
15/07:00pm 23.2 22.5 16.3 65 4.2 NE 15 22 8 12 1016.5 1016.4 0.0
15/06:30pm 23.4 22.1 16.7 66 4.1 NE 19 26 10 14 1016.2 1016.1 0.0
15/06:00pm 24.4 22.5 17.6 66 4.2 NE 24 32 13 17 1015.8 1015.7 0.0
15/05:30pm 25.1 23.6 17.6 63 4.7 NE 22 30 12 16 1015.3 1015.2 0.0
15/05:00pm 25.4 23.7 17.1 60 5.2 NNE 22 28 12 15 1014.9 1014.8 0.0
15/04:30pm 26.6 24.1 16.2 52 6.4 NNE 24 32 13 17 1014.8 1014.7 0.0
15/04:00pm 26.9 24.9 16.5 53 6.4 NNE 22 28 12 15 1014.9 1014.8 0.0
15/03:30pm 27.2 24.8 16.5 52 6.6 NE 24 30 13 16 1014.7 1014.6 0.0
15/03:00pm 27.6 25.8 16.9 52 6.7 NNE 22 30 12 16 1014.9 1014.8 0.0
15/02:30pm 28.9 26.5 16.5 47 7.7 NNE 24 32 13 17 1015.0 1014.9 0.0
15/02:00pm 28.3 26.5 15.9 47 7.6 NNE 20 26 11 14 1015.2 1015.1 0.0
15/01:30pm 29.9 30.0 17.4 47 7.9 NNE 13 26 7 14 1015.4 1015.3 0.0
15/01:00pm 29.3 29.0 16.5 46 8.0 NNE 13 28 7 15 1016.0 1015.9 0.0
15/12:30pm 28.7 28.3 16.3 47 7.7 ENE 13 19 7 10 1016.4 1016.3 0.0

Other Formats:

Comma delimited format used in spreadsheet applications
http://www.bom.gov.au/fwo/IDQ60801/IDQ60801.94575.axf

JavaScript Object Notation format (JSON) in row-major order
http://www.bom.gov.au/fwo/IDQ60801/IDQ60801.94575.json